sensor_id;sensor_type;location;lat;lon;timestamp;pressure;altitude;pressure_sealevel;temperature
24278;BMP280;12394;42.692;23.314;2023-02-01T00:01:12;95079.19;;;1.93
24278;BMP280;12394;42.692;23.314;2023-02-01T00:03:37;95066.22;;;1.77
24278;BMP280;12394;42.692;23.314;2023-02-01T00:06:03;95086.91;;;1.93
24278;BMP280;12394;42.692;23.314;2023-02-01T00:08:28;95082.19;;;1.83
24278;BMP280;12394;42.692;23.314;2023-02-01T00:11:01;95087.38;;;1.83
24278;BMP280;12394;42.692;23.314;2023-02-01T00:13:30;95089.31;;;1.86
24278;BMP280;12394;42.692;23.314;2023-02-01T00:18:32;95087.47;;;1.86
24278;BMP280;12394;42.692;23.314;2023-02-01T00:20:58;95091.53;;;1.87
24278;BMP280;12394;42.692;23.314;2023-02-01T00:23:23;95076.53;;;1.65
24278;BMP280;12394;42.692;23.314;2023-02-01T00:25:48;95083.09;;;1.74
24278;BMP280;12394;42.692;23.314;2023-02-01T00:28:14;95080.06;;;1.85
24278;BMP280;12394;42.692;23.314;2023-02-01T00:30:39;95081.56;;;1.86
24278;BMP280;12394;42.692;23.314;2023-02-01T00:33:04;95078.56;;;1.84
24278;BMP280;12394;42.692;23.314;2023-02-01T00:35:30;95074.25;;;1.88
24278;BMP280;12394;42.692;23.314;2023-02-01T00:37:55;95080.25;;;1.92
24278;BMP280;12394;42.692;23.314;2023-02-01T00:40:23;95069.00;;;1.84
24278;BMP280;12394;42.692;23.314;2023-02-01T00:42:49;95067.03;;;1.93
24278;BMP280;12394;42.692;23.314;2023-02-01T00:45:15;95071.25;;;1.86
24278;BMP280;12394;42.692;23.314;2023-02-01T00:47:41;95064.00;;;1.63
24278;BMP280;12394;42.692;23.314;2023-02-01T00:50:06;95068.63;;;1.58
24278;BMP280;12394;42.692;23.314;2023-02-01T00:52:32;95063.34;;;1.66
24278;BMP280;12394;42.692;23.314;2023-02-01T00:54:57;95063.56;;;1.61
24278;BMP280;12394;42.692;23.314;2023-02-01T00:57:23;95060.53;;;1.71
24278;BMP280;12394;42.692;23.314;2023-02-01T00:59:48;95057.44;;;1.66
24278;BMP280;12394;42.692;23.314;2023-02-01T01:02:13;95060.97;;;1.61
24278;BMP280;12394;42.692;23.314;2023-02-01T01:04:40;95051.56;;;1.53
24278;BMP280;12394;42.692;23.314;2023-02-01T01:07:05;95059.56;;;1.64
24278;BMP280;12394;42.692;23.314;2023-02-01T01:09:30;95061.63;;;1.58
24278;BMP280;12394;42.692;23.314;2023-02-01T01:11:56;95061.84;;;1.65
24278;BMP280;12394;42.692;23.314;2023-02-01T01:14:21;95048.53;;;1.63
24278;BMP280;12394;42.692;23.314;2023-02-01T01:16:47;95052.81;;;1.59
24278;BMP280;12394;42.692;23.314;2023-02-01T01:19:12;95052.09;;;1.59
24278;BMP280;12394;42.692;23.314;2023-02-01T01:21:37;95037.59;;;1.54
24278;BMP280;12394;42.692;23.314;2023-02-01T01:24:03;95051.53;;;1.65
24278;BMP280;12394;42.692;23.314;2023-02-01T01:26:29;95030.63;;;1.43
24278;BMP280;12394;42.692;23.314;2023-02-01T01:28:56;95025.38;;;1.39
24278;BMP280;12394;42.692;23.314;2023-02-01T01:31:22;95048.88;;;1.50
24278;BMP280;12394;42.692;23.314;2023-02-01T01:33:53;95048.34;;;1.44
24278;BMP280;12394;42.692;23.314;2023-02-01T01:36:19;95057.59;;;1.45
24278;BMP280;12394;42.692;23.314;2023-02-01T01:38:44;95065.06;;;1.50
24278;BMP280;12394;42.692;23.314;2023-02-01T01:41:14;95069.81;;;1.48
24278;BMP280;12394;42.692;23.314;2023-02-01T01:44:00;95069.72;;;1.32
24278;BMP280;12394;42.692;23.314;2023-02-01T01:46:27;95068.09;;;1.28
24278;BMP280;12394;42.692;23.314;2023-02-01T01:49:15;95062.19;;;1.27
24278;BMP280;12394;42.692;23.314;2023-02-01T01:51:55;95064.66;;;1.24
24278;BMP280;12394;42.692;23.314;2023-02-01T01:54:32;95051.59;;;1.17
24278;BMP280;12394;42.692;23.314;2023-02-01T01:57:04;95050.41;;;1.02
24278;BMP280;12394;42.692;23.314;2023-02-01T01:59:32;95043.44;;;0.91
24278;BMP280;12394;42.692;23.314;2023-02-01T02:02:02;95049.75;;;0.93
24278;BMP280;12394;42.692;23.314;2023-02-01T02:04:28;95069.50;;;1.01
24278;BMP280;12394;42.692;23.314;2023-02-01T02:07:03;95059.50;;;0.87
24278;BMP280;12394;42.692;23.314;2023-02-01T02:09:29;95064.66;;;0.87
24278;BMP280;12394;42.692;23.314;2023-02-01T02:11:54;95052.63;;;0.79
24278;BMP280;12394;42.692;23.314;2023-02-01T02:14:22;95061.56;;;0.94
24278;BMP280;12394;42.692;23.314;2023-02-01T02:30:38;95056.16;;;0.63
24278;BMP280;12394;42.692;23.314;2023-02-01T02:48:07;95054.91;;;0.81
24278;BMP280;12394;42.692;23.314;2023-02-01T02:50:41;95055.66;;;0.81
24278;BMP280;12394;42.692;23.314;2023-02-01T02:53:48;95054.13;;;0.80
24278;BMP280;12394;42.692;23.314;2023-02-01T02:56:35;95047.94;;;0.81
24278;BMP280;12394;42.692;23.314;2023-02-01T02:59:22;95050.41;;;0.90
24278;BMP280;12394;42.692;23.314;2023-02-01T03:02:08;95060.81;;;0.94
24278;BMP280;12394;42.692;23.314;2023-02-01T03:04:55;95059.72;;;0.95
24278;BMP280;12394;42.692;23.314;2023-02-01T03:16:07;95081.63;;;1.13
24278;BMP280;12394;42.692;23.314;2023-02-01T03:21:28;95071.00;;;1.02
24278;BMP280;12394;42.692;23.314;2023-02-01T03:23:59;95082.91;;;1.19
24278;BMP280;12394;42.692;23.314;2023-02-01T03:26:28;95089.47;;;1.28
24278;BMP280;12394;42.692;23.314;2023-02-01T03:29:00;95089.38;;;1.25
24278;BMP280;12394;42.692;23.314;2023-02-01T03:31:27;95081.00;;;1.04
24278;BMP280;12394;42.692;23.314;2023-02-01T03:33:53;95093.22;;;1.07
24278;BMP280;12394;42.692;23.314;2023-02-01T03:36:26;95091.09;;;1.09
24278;BMP280;12394;42.692;23.314;2023-02-01T03:38:58;95088.72;;;1.04
24278;BMP280;12394;42.692;23.314;2023-02-01T03:47:23;95088.28;;;1.02
24278;BMP280;12394;42.692;23.314;2023-02-01T03:49:53;95078.63;;;0.99
24278;BMP280;12394;42.692;23.314;2023-02-01T03:52:28;95089.34;;;1.01
24278;BMP280;12394;42.692;23.314;2023-02-01T03:54:54;95066.81;;;0.85
24278;BMP280;12394;42.692;23.314;2023-02-01T03:57:26;95071.09;;;1.06
24278;BMP280;12394;42.692;23.314;2023-02-01T03:59:52;95093.66;;;1.09
24278;BMP280;12394;42.692;23.314;2023-02-01T04:02:18;95092.56;;;1.10
24278;BMP280;12394;42.692;23.314;2023-02-01T04:04:43;95092.69;;;1.13
24278;BMP280;12394;42.692;23.314;2023-02-01T04:07:09;95086.91;;;1.16
24278;BMP280;12394;42.692;23.314;2023-02-01T04:09:34;95069.19;;;1.27
24278;BMP280;12394;42.692;23.314;2023-02-01T04:12:00;95075.19;;;1.19
24278;BMP280;12394;42.692;23.314;2023-02-01T04:14:25;95088.41;;;1.17
24278;BMP280;12394;42.692;23.314;2023-02-01T04:16:51;95078.94;;;1.33
24278;BMP280;12394;42.692;23.314;2023-02-01T04:19:16;95092.59;;;1.34
24278;BMP280;12394;42.692;23.314;2023-02-01T04:21:42;95093.00;;;1.24
24278;BMP280;12394;42.692;23.314;2023-02-01T04:24:07;95093.66;;;1.21
24278;BMP280;12394;42.692;23.314;2023-02-01T04:26:33;95078.97;;;1.21
24278;BMP280;12394;42.692;23.314;2023-02-01T04:28:59;95085.91;;;1.33
24278;BMP280;12394;42.692;23.314;2023-02-01T04:31:24;95089.47;;;1.53
24278;BMP280;12394;42.692;23.314;2023-02-01T04:33:54;95090.66;;;1.43
24278;BMP280;12394;42.692;23.314;2023-02-01T04:36:21;95052.63;;;1.28
24278;BMP280;12394;42.692;23.314;2023-02-01T04:38:50;95082.13;;;1.55
24278;BMP280;12394;42.692;23.314;2023-02-01T04:41:15;95070.88;;;1.47
24278;BMP280;12394;42.692;23.314;2023-02-01T04:43:47;95084.31;;;1.41
24278;BMP280;12394;42.692;23.314;2023-02-01T04:46:13;95093.66;;;1.45
24278;BMP280;12394;42.692;23.314;2023-02-01T04:48:38;95094.06;;;1.47
24278;BMP280;12394;42.692;23.314;2023-02-01T04:51:03;95087.06;;;1.60
24278;BMP280;12394;42.692;23.314;2023-02-01T04:53:29;95096.75;;;1.63
24278;BMP280;12394;42.692;23.314;2023-02-01T04:55:55;95091.91;;;1.61
24278;BMP280;12394;42.692;23.314;2023-02-01T04:58:20;95097.50;;;1.63
24278;BMP280;12394;42.692;23.314;2023-02-01T05:00:46;95106.50;;;1.69
24278;BMP280;12394;42.692;23.314;2023-02-01T05:03:11;95096.19;;;1.69
24278;BMP280;12394;42.692;23.314;2023-02-01T05:05:37;95111.09;;;1.88
24278;BMP280;12394;42.692;23.314;2023-02-01T05:08:02;95113.84;;;1.67
24278;BMP280;12394;42.692;23.314;2023-02-01T05:10:28;95115.13;;;1.61
24278;BMP280;12394;42.692;23.314;2023-02-01T05:12:53;95111.78;;;1.61
24278;BMP280;12394;42.692;23.314;2023-02-01T05:15:37;95121.56;;;1.67
24278;BMP280;12394;42.692;23.314;2023-02-01T05:18:02;95105.25;;;1.63
24278;BMP280;12394;42.692;23.314;2023-02-01T05:20:28;95107.47;;;1.65
24278;BMP280;12394;42.692;23.314;2023-02-01T05:22:53;95119.50;;;1.85
24278;BMP280;12394;42.692;23.314;2023-02-01T05:25:19;95113.06;;;1.79
24278;BMP280;12394;42.692;23.314;2023-02-01T05:27:44;95119.28;;;1.90
24278;BMP280;12394;42.692;23.314;2023-02-01T05:30:10;95112.81;;;1.96
24278;BMP280;12394;42.692;23.314;2023-02-01T05:32:35;95124.72;;;2.01
24278;BMP280;12394;42.692;23.314;2023-02-01T05:35:01;95131.41;;;2.02
24278;BMP280;12394;42.692;23.314;2023-02-01T05:37:27;95123.75;;;2.05
24278;BMP280;12394;42.692;23.314;2023-02-01T05:39:52;95121.03;;;2.14
24278;BMP280;12394;42.692;23.314;2023-02-01T05:42:18;95119.88;;;2.11
24278;BMP280;12394;42.692;23.314;2023-02-01T05:44:43;95124.59;;;2.21
24278;BMP280;12394;42.692;23.314;2023-02-01T05:47:09;95122.00;;;2.09
24278;BMP280;12394;42.692;23.314;2023-02-01T05:49:34;95114.94;;;2.06
24278;BMP280;12394;42.692;23.314;2023-02-01T05:52:00;95116.31;;;2.16
24278;BMP280;12394;42.692;23.314;2023-02-01T05:54:25;95123.88;;;2.09
24278;BMP280;12394;42.692;23.314;2023-02-01T05:56:51;95117.16;;;2.20
24278;BMP280;12394;42.692;23.314;2023-02-01T05:59:16;95125.75;;;2.24
24278;BMP280;12394;42.692;23.314;2023-02-01T06:01:42;95124.44;;;2.30
24278;BMP280;12394;42.692;23.314;2023-02-01T06:04:07;95122.94;;;2.29
24278;BMP280;12394;42.692;23.314;2023-02-01T06:06:33;95128.09;;;2.29
24278;BMP280;12394;42.692;23.314;2023-02-01T06:08:58;95123.31;;;2.43
24278;BMP280;12394;42.692;23.314;2023-02-01T06:11:24;95130.00;;;2.32
24278;BMP280;12394;42.692;23.314;2023-02-01T06:13:49;95138.38;;;2.41
24278;BMP280;12394;42.692;23.314;2023-02-01T06:16:15;95116.94;;;2.25
24278;BMP280;12394;42.692;23.314;2023-02-01T06:18:41;95131.72;;;2.40
24278;BMP280;12394;42.692;23.314;2023-02-01T06:21:07;95129.00;;;2.49
24278;BMP280;12394;42.692;23.314;2023-02-01T06:23:32;95138.25;;;2.50
24278;BMP280;12394;42.692;23.314;2023-02-01T06:26:06;95135.47;;;2.43
24278;BMP280;12394;42.692;23.314;2023-02-01T06:28:33;95131.72;;;2.40
24278;BMP280;12394;42.692;23.314;2023-02-01T06:31:06;95134.81;;;2.46
24278;BMP280;12394;42.692;23.314;2023-02-01T06:33:33;95137.69;;;2.56
24278;BMP280;12394;42.692;23.314;2023-02-01T06:36:00;95134.63;;;2.66
24278;BMP280;12394;42.692;23.314;2023-02-01T06:38:26;95140.19;;;2.68
24278;BMP280;12394;42.692;23.314;2023-02-01T06:40:56;95143.81;;;2.80
24278;BMP280;12394;42.692;23.314;2023-02-01T06:43:23;95125.28;;;2.62
24278;BMP280;12394;42.692;23.314;2023-02-01T06:45:49;95151.47;;;2.76
24278;BMP280;12394;42.692;23.314;2023-02-01T06:48:15;95153.41;;;2.79
24278;BMP280;12394;42.692;23.314;2023-02-01T06:50:40;95161.69;;;2.73
24278;BMP280;12394;42.692;23.314;2023-02-01T06:53:05;95141.38;;;2.71
24278;BMP280;12394;42.692;23.314;2023-02-01T06:55:31;95160.16;;;2.84
24278;BMP280;12394;42.692;23.314;2023-02-01T06:57:56;95165.31;;;2.84
24278;BMP280;12394;42.692;23.314;2023-02-01T07:00:22;95179.84;;;2.88
24278;BMP280;12394;42.692;23.314;2023-02-01T07:02:48;95176.44;;;3.00
24278;BMP280;12394;42.692;23.314;2023-02-01T07:05:14;95182.41;;;2.88
24278;BMP280;12394;42.692;23.314;2023-02-01T07:07:40;95169.22;;;2.78
24278;BMP280;12394;42.692;23.314;2023-02-01T07:10:06;95178.78;;;2.77
24278;BMP280;12394;42.692;23.314;2023-02-01T07:12:31;95201.66;;;2.91
24278;BMP280;12394;42.692;23.314;2023-02-01T07:14:56;95160.22;;;2.72
24278;BMP280;12394;42.692;23.314;2023-02-01T07:17:22;95192.59;;;2.97
24278;BMP280;12394;42.692;23.314;2023-02-01T07:19:48;95181.94;;;2.98
24278;BMP280;12394;42.692;23.314;2023-02-01T07:22:16;95194.34;;;2.93
24278;BMP280;12394;42.692;23.314;2023-02-01T07:24:42;95203.78;;;3.01
24278;BMP280;12394;42.692;23.314;2023-02-01T07:27:08;95192.38;;;3.02
24278;BMP280;12394;42.692;23.314;2023-02-01T07:29:33;95203.81;;;3.17
24278;BMP280;12394;42.692;23.314;2023-02-01T07:31:58;95207.91;;;3.18
24278;BMP280;12394;42.692;23.314;2023-02-01T07:34:25;95204.56;;;3.17
24278;BMP280;12394;42.692;23.314;2023-02-01T07:36:50;95192.53;;;3.09
24278;BMP280;12394;42.692;23.314;2023-02-01T07:39:16;95221.91;;;3.32
24278;BMP280;12394;42.692;23.314;2023-02-01T07:41:41;95212.59;;;3.43
24278;BMP280;12394;42.692;23.314;2023-02-01T07:44:07;95208.25;;;3.47
24278;BMP280;12394;42.692;23.314;2023-02-01T07:46:32;95214.75;;;3.41
24278;BMP280;12394;42.692;23.314;2023-02-01T07:48:57;95214.94;;;3.48
24278;BMP280;12394;42.692;23.314;2023-02-01T07:51:23;95217.94;;;3.50
24278;BMP280;12394;42.692;23.314;2023-02-01T07:53:48;95218.59;;;3.47
24278;BMP280;12394;42.692;23.314;2023-02-01T07:56:16;95210.34;;;3.42
24278;BMP280;12394;42.692;23.314;2023-02-01T07:58:42;95230.22;;;3.53
24278;BMP280;12394;42.692;23.314;2023-02-01T08:01:19;95199.56;;;3.24
24278;BMP280;12394;42.692;23.314;2023-02-01T08:03:46;95232.44;;;3.55
24278;BMP280;12394;42.692;23.314;2023-02-01T08:06:13;95235.78;;;3.55
24278;BMP280;12394;42.692;23.314;2023-02-01T08:08:38;95236.72;;;3.63
24278;BMP280;12394;42.692;23.314;2023-02-01T08:11:06;95228.28;;;3.50
24278;BMP280;12394;42.692;23.314;2023-02-01T08:13:33;95234.97;;;3.67
24278;BMP280;12394;42.692;23.314;2023-02-01T08:16:00;95229.59;;;3.91
24278;BMP280;12394;42.692;23.314;2023-02-01T08:18:26;95219.28;;;3.76
24278;BMP280;12394;42.692;23.314;2023-02-01T08:20:52;95233.03;;;3.95
24278;BMP280;12394;42.692;23.314;2023-02-01T08:23:17;95228.78;;;4.03
24278;BMP280;12394;42.692;23.314;2023-02-01T08:25:43;95235.72;;;3.99
24278;BMP280;12394;42.692;23.314;2023-02-01T08:28:09;95224.66;;;4.18
24278;BMP280;12394;42.692;23.314;2023-02-01T08:30:39;95237.66;;;5.14
24278;BMP280;12394;42.692;23.314;2023-02-01T08:33:05;95240.53;;;5.51
24278;BMP280;12394;42.692;23.314;2023-02-01T08:35:33;95238.19;;;5.42
24278;BMP280;12394;42.692;23.314;2023-02-01T08:37:59;95239.69;;;5.66
24278;BMP280;12394;42.692;23.314;2023-02-01T08:40:24;95223.84;;;5.71
24278;BMP280;12394;42.692;23.314;2023-02-01T08:42:50;95251.16;;;6.10
24278;BMP280;12394;42.692;23.314;2023-02-01T08:45:24;95235.47;;;5.80
24278;BMP280;12394;42.692;23.314;2023-02-01T08:47:53;95219.78;;;5.51
24278;BMP280;12394;42.692;23.314;2023-02-01T08:50:20;95228.91;;;5.64
24278;BMP280;12394;42.692;23.314;2023-02-01T08:52:45;95227.97;;;5.53
24278;BMP280;12394;42.692;23.314;2023-02-01T08:55:12;95220.81;;;5.46
24278;BMP280;12394;42.692;23.314;2023-02-01T08:57:38;95226.06;;;5.50
24278;BMP280;12394;42.692;23.314;2023-02-01T09:00:05;95213.72;;;5.43
24278;BMP280;12394;42.692;23.314;2023-02-01T09:02:31;95238.81;;;5.35
24278;BMP280;12394;42.692;23.314;2023-02-01T09:04:56;95234.34;;;5.36
24278;BMP280;12394;42.692;23.314;2023-02-01T09:07:22;95231.38;;;5.34
24278;BMP280;12394;42.692;23.314;2023-02-01T09:09:47;95227.38;;;5.17
24278;BMP280;12394;42.692;23.314;2023-02-01T09:12:12;95232.56;;;5.17
24278;BMP280;12394;42.692;23.314;2023-02-01T09:14:38;95233.75;;;5.23
24278;BMP280;12394;42.692;23.314;2023-02-01T09:17:03;95243.06;;;5.24
24278;BMP280;12394;42.692;23.314;2023-02-01T09:19:31;95239.34;;;5.45
24278;BMP280;12394;42.692;23.314;2023-02-01T09:21:56;95233.00;;;5.42
24278;BMP280;12394;42.692;23.314;2023-02-01T09:24:22;95249.31;;;5.43
24278;BMP280;12394;42.692;23.314;2023-02-01T09:26:47;95239.97;;;5.61
24278;BMP280;12394;42.692;23.314;2023-02-01T09:29:13;95230.00;;;5.40
24278;BMP280;12394;42.692;23.314;2023-02-01T09:31:39;95238.97;;;5.46
24278;BMP280;12394;42.692;23.314;2023-02-01T09:34:06;95228.59;;;5.46
24278;BMP280;12394;42.692;23.314;2023-02-01T09:36:32;95213.59;;;5.13
24278;BMP280;12394;42.692;23.314;2023-02-01T09:38:59;95220.75;;;5.20
24278;BMP280;12394;42.692;23.314;2023-02-01T09:44:48;95209.25;;;5.63
24278;BMP280;12394;42.692;23.314;2023-02-01T09:47:19;95190.63;;;5.57
24278;BMP280;12394;42.692;23.314;2023-02-01T09:52:28;95193.25;;;6.66
24278;BMP280;12394;42.692;23.314;2023-02-01T09:55:00;95187.97;;;6.59
24278;BMP280;12394;42.692;23.314;2023-02-01T10:00:05;95179.56;;;6.72
24278;BMP280;12394;42.692;23.314;2023-02-01T10:02:36;95187.94;;;7.26
24278;BMP280;12394;42.692;23.314;2023-02-01T10:05:04;95193.56;;;9.13
24278;BMP280;12394;42.692;23.314;2023-02-01T10:10:27;95176.00;;;11.24
24278;BMP280;12394;42.692;23.314;2023-02-01T10:13:31;95183.09;;;12.61
24278;BMP280;12394;42.692;23.314;2023-02-01T10:16:13;95176.31;;;14.83
24278;BMP280;12394;42.692;23.314;2023-02-01T10:24:57;95171.22;;;17.97
24278;BMP280;12394;42.692;23.314;2023-02-01T10:27:37;95162.50;;;18.43
24278;BMP280;12394;42.692;23.314;2023-02-01T10:30:21;95160.78;;;19.64
24278;BMP280;12394;42.692;23.314;2023-02-01T10:32:50;95155.25;;;18.78
24278;BMP280;12394;42.692;23.314;2023-02-01T10:35:21;95138.59;;;18.78
24278;BMP280;12394;42.692;23.314;2023-02-01T10:37:48;95135.78;;;20.10
24278;BMP280;12394;42.692;23.314;2023-02-01T10:40:20;95148.22;;;20.31
24278;BMP280;12394;42.692;23.314;2023-02-01T10:42:48;95139.38;;;19.58
24278;BMP280;12394;42.692;23.314;2023-02-01T10:45:18;95156.19;;;18.28
24278;BMP280;12394;42.692;23.314;2023-02-01T10:47:44;95151.03;;;18.25
24278;BMP280;12394;42.692;23.314;2023-02-01T10:50:22;95137.16;;;18.86
24278;BMP280;12394;42.692;23.314;2023-02-01T10:52:58;95135.72;;;17.60
24278;BMP280;12394;42.692;23.314;2023-02-01T10:55:27;95133.09;;;14.21
24278;BMP280;12394;42.692;23.314;2023-02-01T10:57:56;95142.59;;;16.24
24278;BMP280;12394;42.692;23.314;2023-02-01T11:00:22;95126.53;;;17.01
24278;BMP280;12394;42.692;23.314;2023-02-01T11:02:47;95132.22;;;16.87
24278;BMP280;12394;42.692;23.314;2023-02-01T11:05:16;95121.41;;;16.40
24278;BMP280;12394;42.692;23.314;2023-02-01T11:07:48;95135.53;;;15.76
24278;BMP280;12394;42.692;23.314;2023-02-01T11:10:37;95125.06;;;14.68
24278;BMP280;12394;42.692;23.314;2023-02-01T11:13:03;95136.97;;;13.94
24278;BMP280;12394;42.692;23.314;2023-02-01T11:15:29;95123.66;;;14.01
24278;BMP280;12394;42.692;23.314;2023-02-01T11:17:55;95128.34;;;14.92
24278;BMP280;12394;42.692;23.314;2023-02-01T11:20:37;95133.06;;;15.52
24278;BMP280;12394;42.692;23.314;2023-02-01T11:23:05;95123.16;;;14.68
24278;BMP280;12394;42.692;23.314;2023-02-01T11:25:32;95121.16;;;14.76
24278;BMP280;12394;42.692;23.314;2023-02-01T11:28:01;95078.44;;;14.29
24278;BMP280;12394;42.692;23.314;2023-02-01T11:30:36;95107.91;;;14.20
24278;BMP280;12394;42.692;23.314;2023-02-01T11:33:03;95090.38;;;14.34
24278;BMP280;12394;42.692;23.314;2023-02-01T11:35:30;95075.44;;;12.64
24278;BMP280;12394;42.692;23.314;2023-02-01T11:37:58;95105.38;;;12.36
24278;BMP280;12394;42.692;23.314;2023-02-01T11:40:37;95100.63;;;11.90
24278;BMP280;12394;42.692;23.314;2023-02-01T11:43:23;95099.38;;;11.17
24278;BMP280;12394;42.692;23.314;2023-02-01T11:45:58;95092.41;;;10.92
24278;BMP280;12394;42.692;23.314;2023-02-01T11:48:26;95089.91;;;10.75
24278;BMP280;12394;42.692;23.314;2023-02-01T11:54:00;95074.09;;;10.16
24278;BMP280;12394;42.692;23.314;2023-02-01T11:56:37;95083.81;;;10.12
24278;BMP280;12394;42.692;23.314;2023-02-01T11:59:25;95080.09;;;9.99
24278;BMP280;12394;42.692;23.314;2023-02-01T12:13:41;95079.81;;;9.12
24278;BMP280;12394;42.692;23.314;2023-02-01T12:16:37;95064.91;;;9.09
24278;BMP280;12394;42.692;23.314;2023-02-01T12:22:04;95062.97;;;8.53
24278;BMP280;12394;42.692;23.314;2023-02-01T12:25:05;95071.09;;;8.37
24278;BMP280;12394;42.692;23.314;2023-02-01T12:44:08;95059.22;;;8.46
24278;BMP280;12394;42.692;23.314;2023-02-01T12:46:52;95068.13;;;8.35
24278;BMP280;12394;42.692;23.314;2023-02-01T12:51:52;95049.81;;;8.24
24278;BMP280;12394;42.692;23.314;2023-02-01T12:54:23;95053.91;;;8.22
24278;BMP280;12394;42.692;23.314;2023-02-01T12:56:57;95062.94;;;8.45
24278;BMP280;12394;42.692;23.314;2023-02-01T12:59:42;95059.94;;;8.36
24278;BMP280;12394;42.692;23.314;2023-02-01T13:04:56;95057.31;;;8.36
24278;BMP280;12394;42.692;23.314;2023-02-01T13:07:34;95052.88;;;8.44
24278;BMP280;12394;42.692;23.314;2023-02-01T13:10:12;95054.34;;;8.31
24278;BMP280;12394;42.692;23.314;2023-02-01T13:12:47;95049.41;;;8.08
24278;BMP280;12394;42.692;23.314;2023-02-01T13:15:45;95058.81;;;8.37
24278;BMP280;12394;42.692;23.314;2023-02-01T13:18:18;95016.50;;;7.79
24278;BMP280;12394;42.692;23.314;2023-02-01T13:20:56;95052.63;;;7.87
24278;BMP280;12394;42.692;23.314;2023-02-01T13:23:29;95073.19;;;8.03
24278;BMP280;12394;42.692;23.314;2023-02-01T13:25:55;95064.13;;;7.76
24278;BMP280;12394;42.692;23.314;2023-02-01T13:36:47;95067.03;;;7.67
24278;BMP280;12394;42.692;23.314;2023-02-01T13:39:43;95071.03;;;7.50
24278;BMP280;12394;42.692;23.314;2023-02-01T13:42:21;95052.00;;;7.43
24278;BMP280;12394;42.692;23.314;2023-02-01T13:45:17;95066.22;;;7.56
24278;BMP280;12394;42.692;23.314;2023-02-01T13:47:47;95065.22;;;7.71
24278;BMP280;12394;42.692;23.314;2023-02-01T13:52:44;95072.97;;;7.64
24278;BMP280;12394;42.692;23.314;2023-02-01T13:58:00;95060.31;;;7.63
24278;BMP280;12394;42.692;23.314;2023-02-01T14:11:02;95062.28;;;7.80
24278;BMP280;12394;42.692;23.314;2023-02-01T14:13:40;95060.09;;;7.92
24278;BMP280;12394;42.692;23.314;2023-02-01T14:23:42;95062.63;;;7.75
24278;BMP280;12394;42.692;23.314;2023-02-01T14:36:57;95043.78;;;7.37
24278;BMP280;12394;42.692;23.314;2023-02-01T14:42:03;95041.84;;;7.24
24278;BMP280;12394;42.692;23.314;2023-02-01T14:44:34;95034.00;;;7.17
24278;BMP280;12394;42.692;23.314;2023-02-01T14:47:30;95054.59;;;7.39
24278;BMP280;12394;42.692;23.314;2023-02-01T14:50:00;95059.31;;;7.23
24278;BMP280;12394;42.692;23.314;2023-02-01T14:58:45;95067.78;;;6.72
24278;BMP280;12394;42.692;23.314;2023-02-01T15:01:17;95056.59;;;6.68
24278;BMP280;12394;42.692;23.314;2023-02-01T15:06:38;95064.03;;;6.66
24278;BMP280;12394;42.692;23.314;2023-02-01T15:15:18;95063.63;;;6.28
24278;BMP280;12394;42.692;23.314;2023-02-01T15:20:25;95052.41;;;6.20
24278;BMP280;12394;42.692;23.314;2023-02-01T15:22:59;95051.28;;;6.17
24278;BMP280;12394;42.692;23.314;2023-02-01T15:27:55;95036.31;;;6.07
24278;BMP280;12394;42.692;23.314;2023-02-01T15:30:26;95034.56;;;6.18
24278;BMP280;12394;42.692;23.314;2023-02-01T15:33:04;95022.53;;;6.03
24278;BMP280;12394;42.692;23.314;2023-02-01T15:35:40;95033.31;;;6.05
24278;BMP280;12394;42.692;23.314;2023-02-01T15:38:30;95023.88;;;5.90
24278;BMP280;12394;42.692;23.314;2023-02-01T15:46:23;95037.97;;;5.89
24278;BMP280;12394;42.692;23.314;2023-02-01T15:48:51;95039.63;;;5.78
24278;BMP280;12394;42.692;23.314;2023-02-01T15:51:20;95030.88;;;5.60
24278;BMP280;12394;42.692;23.314;2023-02-01T15:53:50;95041.34;;;5.67
24278;BMP280;12394;42.692;23.314;2023-02-01T15:56:22;95041.28;;;5.63
24278;BMP280;12394;42.692;23.314;2023-02-01T15:58:51;95043.09;;;5.59
24278;BMP280;12394;42.692;23.314;2023-02-01T16:01:18;95035.31;;;5.59
24278;BMP280;12394;42.692;23.314;2023-02-01T16:03:45;95049.03;;;5.60
24278;BMP280;12394;42.692;23.314;2023-02-01T16:08:55;95054.13;;;5.53
24278;BMP280;12394;42.692;23.314;2023-02-01T16:11:32;95034.88;;;5.54
24278;BMP280;12394;42.692;23.314;2023-02-01T16:14:04;95067.56;;;5.58
24278;BMP280;12394;42.692;23.314;2023-02-01T16:16:30;95081.97;;;5.56
24278;BMP280;12394;42.692;23.314;2023-02-01T16:18:55;95076.69;;;5.49
24278;BMP280;12394;42.692;23.314;2023-02-01T16:21:20;95077.06;;;5.51
24278;BMP280;12394;42.692;23.314;2023-02-01T16:23:52;95079.97;;;5.46
24278;BMP280;12394;42.692;23.314;2023-02-01T16:26:18;95081.38;;;5.66
24278;BMP280;12394;42.692;23.314;2023-02-01T16:28:44;95068.97;;;5.52
24278;BMP280;12394;42.692;23.314;2023-02-01T16:31:15;95085.09;;;5.42
24278;BMP280;12394;42.692;23.314;2023-02-01T16:33:49;95073.13;;;5.34
24278;BMP280;12394;42.692;23.314;2023-02-01T16:36:16;95078.84;;;5.43
24278;BMP280;12394;42.692;23.314;2023-02-01T16:38:42;95068.47;;;5.43
24278;BMP280;12394;42.692;23.314;2023-02-01T16:41:12;95088.75;;;5.64
24278;BMP280;12394;42.692;23.314;2023-02-01T16:43:38;95083.97;;;5.66
24278;BMP280;12394;42.692;23.314;2023-02-01T16:46:04;95064.81;;;5.48
24278;BMP280;12394;42.692;23.314;2023-02-01T16:48:33;95087.81;;;5.49
24278;BMP280;12394;42.692;23.314;2023-02-01T16:51:01;95091.22;;;5.53
24278;BMP280;12394;42.692;23.314;2023-02-01T16:53:29;95089.00;;;5.55
24278;BMP280;12394;42.692;23.314;2023-02-01T16:55:55;95079.97;;;5.46
24278;BMP280;12394;42.692;23.314;2023-02-01T16:58:23;95084.81;;;5.47
24278;BMP280;12394;42.692;23.314;2023-02-01T17:00:49;95084.47;;;5.49
24278;BMP280;12394;42.692;23.314;2023-02-01T17:03:16;95083.31;;;5.46
24278;BMP280;12394;42.692;23.314;2023-02-01T17:05:55;95075.44;;;5.39
24278;BMP280;12394;42.692;23.314;2023-02-01T17:08:29;95079.88;;;5.38
24278;BMP280;12394;42.692;23.314;2023-02-01T17:10:56;95076.50;;;5.34
24278;BMP280;12394;42.692;23.314;2023-02-01T17:13:21;95051.44;;;5.19
24278;BMP280;12394;42.692;23.314;2023-02-01T17:15:56;95064.91;;;5.28
24278;BMP280;12394;42.692;23.314;2023-02-01T17:18:21;95067.66;;;5.39